sensor_id;sensor_type;location;lat;lon;timestamp;P1;durP1;ratioP1;P2;durP2;ratioP2
39344;SDS011;25061;51.954;6.996;2023-09-12T04:32:36;26.27;;;17.42;;
39344;SDS011;25061;51.954;6.996;2023-09-12T04:35:01;24.75;;;16.92;;
39344;SDS011;25061;51.954;6.996;2023-09-12T04:37:28;24.38;;;17.25;;
39344;SDS011;25061;51.954;6.996;2023-09-12T04:39:54;28.70;;;17.50;;
39344;SDS011;25061;51.954;6.996;2023-09-12T04:42:19;27.50;;;18.30;;
39344;SDS011;25061;51.954;6.996;2023-09-12T04:44:45;23.40;;;17.35;;
39344;SDS011;25061;51.954;6.996;2023-09-12T04:47:12;23.10;;;17.50;;
39344;SDS011;25061;51.954;6.996;2023-09-12T04:49:39;26.80;;;18.08;;
39344;SDS011;25061;51.954;6.996;2023-09-12T04:52:04;25.13;;;18.08;;
39344;SDS011;25061;51.954;6.996;2023-09-12T04:54:31;25.58;;;19.30;;
39344;SDS011;25061;51.954;6.996;2023-09-12T04:56:57;27.27;;;19.02;;
39344;SDS011;25061;51.954;6.996;2023-09-12T04:59:22;26.05;;;19.58;;
39344;SDS011;25061;51.954;6.996;2023-09-12T05:01:48;22.48;;;17.65;;
39344;SDS011;25061;51.954;6.996;2023-09-12T05:04:15;26.33;;;20.60;;
39344;SDS011;25061;51.954;6.996;2023-09-12T05:06:41;27.05;;;20.98;;
39344;SDS011;25061;51.954;6.996;2023-09-12T05:09:07;27.05;;;21.08;;
39344;SDS011;25061;51.954;6.996;2023-09-12T05:11:34;28.40;;;20.75;;
39344;SDS011;25061;51.954;6.996;2023-09-12T05:14:00;27.30;;;21.50;;
39344;SDS011;25061;51.954;6.996;2023-09-12T05:16:28;26.25;;;20.05;;
39344;SDS011;25061;51.954;6.996;2023-09-12T05:18:54;30.42;;;20.25;;
39344;SDS011;25061;51.954;6.996;2023-09-12T05:21:20;30.02;;;20.73;;
39344;SDS011;25061;51.954;6.996;2023-09-12T05:23:46;28.60;;;19.38;;
39344;SDS011;25061;51.954;6.996;2023-09-12T05:26:11;27.23;;;19.73;;
39344;SDS011;25061;51.954;6.996;2023-09-12T05:28:37;28.88;;;21.40;;
39344;SDS011;25061;51.954;6.996;2023-09-12T05:31:03;32.30;;;22.02;;
39344;SDS011;25061;51.954;6.996;2023-09-12T05:33:28;29.38;;;21.08;;
39344;SDS011;25061;51.954;6.996;2023-09-12T05:35:54;28.50;;;21.60;;
39344;SDS011;25061;51.954;6.996;2023-09-12T05:38:20;28.52;;;21.95;;
39344;SDS011;25061;51.954;6.996;2023-09-12T05:40:46;31.50;;;21.73;;
39344;SDS011;25061;51.954;6.996;2023-09-12T05:43:14;31.95;;;23.48;;
39344;SDS011;25061;51.954;6.996;2023-09-12T05:45:40;30.63;;;24.13;;
39344;SDS011;25061;51.954;6.996;2023-09-12T05:48:06;31.48;;;22.98;;
39344;SDS011;25061;51.954;6.996;2023-09-12T05:50:32;35.55;;;23.92;;
39344;SDS011;25061;51.954;6.996;2023-09-12T05:52:58;31.25;;;23.98;;
39344;SDS011;25061;51.954;6.996;2023-09-12T05:55:26;32.50;;;24.38;;
39344;SDS011;25061;51.954;6.996;2023-09-12T05:57:52;31.45;;;22.77;;
39344;SDS011;25061;51.954;6.996;2023-09-12T06:00:18;33.72;;;24.83;;
39344;SDS011;25061;51.954;6.996;2023-09-12T06:02:44;37.60;;;26.30;;
39344;SDS011;25061;51.954;6.996;2023-09-12T06:05:10;40.20;;;26.55;;
39344;SDS011;25061;51.954;6.996;2023-09-12T06:07:36;36.17;;;26.55;;
39344;SDS011;25061;51.954;6.996;2023-09-12T06:10:04;49.75;;;28.13;;
39344;SDS011;25061;51.954;6.996;2023-09-12T06:12:29;39.13;;;27.65;;
39344;SDS011;25061;51.954;6.996;2023-09-12T06:15:01;46.25;;;27.35;;
39344;SDS011;25061;51.954;6.996;2023-09-12T06:17:27;44.90;;;28.75;;
39344;SDS011;25061;51.954;6.996;2023-09-12T06:19:54;47.05;;;28.65;;
39344;SDS011;25061;51.954;6.996;2023-09-12T06:22:19;47.45;;;29.00;;
39344;SDS011;25061;51.954;6.996;2023-09-12T06:24:45;44.70;;;29.90;;
39344;SDS011;25061;51.954;6.996;2023-09-12T06:27:11;47.50;;;29.90;;
39344;SDS011;25061;51.954;6.996;2023-09-12T06:32:15;57.90;;;32.67;;
39344;SDS011;25061;51.954;6.996;2023-09-12T06:34:42;54.85;;;30.95;;
39344;SDS011;25061;51.954;6.996;2023-09-12T06:37:08;49.78;;;30.95;;
39344;SDS011;25061;51.954;6.996;2023-09-12T06:39:35;56.70;;;32.47;;
39344;SDS011;25061;51.954;6.996;2023-09-12T06:42:01;72.53;;;34.90;;
39344;SDS011;25061;51.954;6.996;2023-09-12T06:44:27;61.92;;;33.47;;
39344;SDS011;25061;51.954;6.996;2023-09-12T06:46:52;55.22;;;32.35;;
39344;SDS011;25061;51.954;6.996;2023-09-12T06:49:18;56.40;;;31.80;;
39344;SDS011;25061;51.954;6.996;2023-09-12T06:51:48;56.38;;;31.95;;
39344;SDS011;25061;51.954;6.996;2023-09-12T06:54:14;56.33;;;32.72;;
39344;SDS011;25061;51.954;6.996;2023-09-12T06:56:40;62.85;;;33.95;;
39344;SDS011;25061;51.954;6.996;2023-09-12T06:59:07;59.67;;;33.78;;
39344;SDS011;25061;51.954;6.996;2023-09-12T07:01:33;67.10;;;33.92;;
39344;SDS011;25061;51.954;6.996;2023-09-12T07:03:59;63.92;;;34.40;;
39344;SDS011;25061;51.954;6.996;2023-09-12T07:06:25;66.68;;;34.90;;
39344;SDS011;25061;51.954;6.996;2023-09-12T07:08:50;66.18;;;34.42;;
39344;SDS011;25061;51.954;6.996;2023-09-12T07:11:16;63.88;;;35.42;;
39344;SDS011;25061;51.954;6.996;2023-09-12T07:13:42;61.13;;;35.08;;
39344;SDS011;25061;51.954;6.996;2023-09-12T07:16:07;61.42;;;35.83;;
39344;SDS011;25061;51.954;6.996;2023-09-12T07:18:33;56.85;;;35.20;;
39344;SDS011;25061;51.954;6.996;2023-09-12T07:21:03;52.95;;;33.33;;
39344;SDS011;25061;51.954;6.996;2023-09-12T07:23:30;47.05;;;32.53;;
39344;SDS011;25061;51.954;6.996;2023-09-12T07:25:57;43.65;;;32.20;;
39344;SDS011;25061;51.954;6.996;2023-09-12T07:28:23;47.60;;;33.25;;
39344;SDS011;25061;51.954;6.996;2023-09-12T07:30:50;50.38;;;34.13;;
39344;SDS011;25061;51.954;6.996;2023-09-12T07:33:15;49.13;;;32.78;;
39344;SDS011;25061;51.954;6.996;2023-09-12T07:35:41;51.47;;;33.70;;
39344;SDS011;25061;51.954;6.996;2023-09-12T07:38:06;44.40;;;32.28;;
39344;SDS011;25061;51.954;6.996;2023-09-12T07:40:32;45.00;;;31.80;;
39344;SDS011;25061;51.954;6.996;2023-09-12T07:42:57;46.55;;;31.83;;
39344;SDS011;25061;51.954;6.996;2023-09-12T07:45:23;53.55;;;34.50;;
39344;SDS011;25061;51.954;6.996;2023-09-12T07:47:50;43.17;;;30.80;;
39344;SDS011;25061;51.954;6.996;2023-09-12T07:50:16;48.28;;;32.67;;
39344;SDS011;25061;51.954;6.996;2023-09-12T07:52:41;51.75;;;35.28;;
39344;SDS011;25061;51.954;6.996;2023-09-12T07:55:07;52.90;;;34.80;;
39344;SDS011;25061;51.954;6.996;2023-09-12T07:57:33;48.17;;;33.83;;
39344;SDS011;25061;51.954;6.996;2023-09-12T07:59:59;68.65;;;35.17;;
39344;SDS011;25061;51.954;6.996;2023-09-12T08:02:26;48.78;;;33.92;;
39344;SDS011;25061;51.954;6.996;2023-09-12T08:04:51;45.50;;;31.70;;
39344;SDS011;25061;51.954;6.996;2023-09-12T08:07:18;63.10;;;33.33;;
39344;SDS011;25061;51.954;6.996;2023-09-12T08:09:49;46.00;;;31.85;;
39344;SDS011;25061;51.954;6.996;2023-09-12T08:12:18;46.30;;;31.65;;
39344;SDS011;25061;51.954;6.996;2023-09-12T08:14:45;46.22;;;32.05;;
39344;SDS011;25061;51.954;6.996;2023-09-12T08:17:11;44.80;;;31.10;;
39344;SDS011;25061;51.954;6.996;2023-09-12T08:19:38;51.65;;;33.55;;
39344;SDS011;25061;51.954;6.996;2023-09-12T08:22:04;50.78;;;34.08;;
39344;SDS011;25061;51.954;6.996;2023-09-12T08:24:30;52.95;;;34.88;;
39344;SDS011;25061;51.954;6.996;2023-09-12T08:26:56;63.90;;;36.35;;
39344;SDS011;25061;51.954;6.996;2023-09-12T08:29:21;50.15;;;34.22;;
39344;SDS011;25061;51.954;6.996;2023-09-12T08:31:47;52.85;;;34.40;;
39344;SDS011;25061;51.954;6.996;2023-09-12T08:34:13;46.33;;;33.85;;
39344;SDS011;25061;51.954;6.996;2023-09-12T08:36:39;53.13;;;34.85;;
39344;SDS011;25061;51.954;6.996;2023-09-12T08:39:04;47.25;;;33.42;;
39344;SDS011;25061;51.954;6.996;2023-09-12T08:41:33;48.33;;;34.97;;
39344;SDS011;25061;51.954;6.996;2023-09-12T08:43:59;45.88;;;32.60;;
39344;SDS011;25061;51.954;6.996;2023-09-12T08:46:26;42.53;;;31.08;;
39344;SDS011;25061;51.954;6.996;2023-09-12T08:48:55;42.78;;;32.42;;
39344;SDS011;25061;51.954;6.996;2023-09-12T08:51:22;40.33;;;29.70;;
39344;SDS011;25061;51.954;6.996;2023-09-12T08:53:51;38.60;;;29.00;;
39344;SDS011;25061;51.954;6.996;2023-09-12T08:56:18;41.63;;;29.02;;
39344;SDS011;25061;51.954;6.996;2023-09-12T08:58:44;38.50;;;29.13;;
39344;SDS011;25061;51.954;6.996;2023-09-12T09:01:13;37.38;;;28.15;;
39344;SDS011;25061;51.954;6.996;2023-09-12T09:06:09;33.80;;;25.10;;
39344;SDS011;25061;51.954;6.996;2023-09-12T09:08:35;30.45;;;24.40;;
39344;SDS011;25061;51.954;6.996;2023-09-12T09:11:02;32.28;;;25.20;;
39344;SDS011;25061;51.954;6.996;2023-09-12T09:13:28;25.58;;;20.48;;
39344;SDS011;25061;51.954;6.996;2023-09-12T09:16:10;23.67;;;18.15;;
39344;SDS011;25061;51.954;6.996;2023-09-12T09:18:50;26.63;;;18.77;;
39344;SDS011;25061;51.954;6.996;2023-09-12T09:21:20;22.23;;;17.02;;
39344;SDS011;25061;51.954;6.996;2023-09-12T09:23:49;24.05;;;16.83;;
39344;SDS011;25061;51.954;6.996;2023-09-12T09:26:15;23.45;;;18.20;;
39344;SDS011;25061;51.954;6.996;2023-09-12T09:28:41;21.73;;;15.48;;
39344;SDS011;25061;51.954;6.996;2023-09-12T09:31:13;20.27;;;13.73;;
39344;SDS011;25061;51.954;6.996;2023-09-12T09:33:41;20.83;;;12.73;;
39344;SDS011;25061;51.954;6.996;2023-09-12T09:36:16;17.77;;;13.75;;
39344;SDS011;25061;51.954;6.996;2023-09-12T09:38:42;16.45;;;12.65;;
39344;SDS011;25061;51.954;6.996;2023-09-12T09:41:08;17.55;;;12.93;;
39344;SDS011;25061;51.954;6.996;2023-09-12T09:43:35;17.25;;;12.93;;
39344;SDS011;25061;51.954;6.996;2023-09-12T09:46:00;17.42;;;13.10;;
39344;SDS011;25061;51.954;6.996;2023-09-12T09:48:28;17.42;;;12.10;;
39344;SDS011;25061;51.954;6.996;2023-09-12T09:51:00;19.17;;;11.82;;
39344;SDS011;25061;51.954;6.996;2023-09-12T09:53:28;17.60;;;13.00;;
39344;SDS011;25061;51.954;6.996;2023-09-12T09:56:10;15.45;;;11.57;;
39344;SDS011;25061;51.954;6.996;2023-09-12T09:58:46;15.95;;;12.70;;
39344;SDS011;25061;51.954;6.996;2023-09-12T10:01:14;18.67;;;12.43;;
39344;SDS011;25061;51.954;6.996;2023-09-12T10:03:44;16.08;;;11.00;;
39344;SDS011;25061;51.954;6.996;2023-09-12T10:06:12;15.68;;;11.55;;
39344;SDS011;25061;51.954;6.996;2023-09-12T10:08:41;16.73;;;11.57;;
39344;SDS011;25061;51.954;6.996;2023-09-12T10:11:15;15.55;;;11.88;;
39344;SDS011;25061;51.954;6.996;2023-09-12T10:14:25;16.23;;;11.93;;
39344;SDS011;25061;51.954;6.996;2023-09-12T10:16:33;17.90;;;12.60;;
39344;SDS011;25061;51.954;6.996;2023-09-12T10:24:43;17.63;;;13.60;;
39344;SDS011;25061;51.954;6.996;2023-09-12T10:27:10;18.98;;;13.23;;
39344;SDS011;25061;51.954;6.996;2023-09-12T10:29:37;16.05;;;12.55;;
39344;SDS011;25061;51.954;6.996;2023-09-12T10:32:03;17.15;;;12.13;;
39344;SDS011;25061;51.954;6.996;2023-09-12T10:34:30;17.35;;;12.13;;
39344;SDS011;25061;51.954;6.996;2023-09-12T10:37:00;18.05;;;12.30;;
39344;SDS011;25061;51.954;6.996;2023-09-12T10:39:29;16.23;;;12.13;;
39344;SDS011;25061;51.954;6.996;2023-09-12T10:41:57;15.40;;;12.57;;
39344;SDS011;25061;51.954;6.996;2023-09-12T10:44:23;17.45;;;12.80;;
39344;SDS011;25061;51.954;6.996;2023-09-12T10:46:50;19.95;;;13.52;;
39344;SDS011;25061;51.954;6.996;2023-09-12T10:49:18;18.55;;;14.13;;
39344;SDS011;25061;51.954;6.996;2023-09-12T10:51:45;17.27;;;12.23;;
39344;SDS011;25061;51.954;6.996;2023-09-12T10:54:15;17.77;;;12.48;;
39344;SDS011;25061;51.954;6.996;2023-09-12T10:57:01;14.80;;;10.48;;
39344;SDS011;25061;51.954;6.996;2023-09-12T10:59:36;13.30;;;10.00;;
39344;SDS011;25061;51.954;6.996;2023-09-12T11:05:05;14.73;;;11.32;;
39344;SDS011;25061;51.954;6.996;2023-09-12T11:12:43;15.80;;;12.63;;
39344;SDS011;25061;51.954;6.996;2023-09-12T11:15:11;16.75;;;13.45;;
39344;SDS011;25061;51.954;6.996;2023-09-12T11:17:40;18.33;;;14.30;;
39344;SDS011;25061;51.954;6.996;2023-09-12T11:20:07;16.23;;;11.88;;
39344;SDS011;25061;51.954;6.996;2023-09-12T11:22:36;13.38;;;9.18;;
39344;SDS011;25061;51.954;6.996;2023-09-12T11:25:14;15.27;;;10.95;;
39344;SDS011;25061;51.954;6.996;2023-09-12T11:27:44;15.13;;;11.18;;
39344;SDS011;25061;51.954;6.996;2023-09-12T11:30:17;13.88;;;10.23;;
39344;SDS011;25061;51.954;6.996;2023-09-12T11:32:44;15.05;;;11.32;;
39344;SDS011;25061;51.954;6.996;2023-09-12T11:35:11;15.77;;;11.27;;
39344;SDS011;25061;51.954;6.996;2023-09-12T11:37:39;14.85;;;11.18;;
39344;SDS011;25061;51.954;6.996;2023-09-12T11:42:41;13.82;;;10.65;;
39344;SDS011;25061;51.954;6.996;2023-09-12T11:45:08;14.00;;;10.77;;
39344;SDS011;25061;51.954;6.996;2023-09-12T11:47:40;13.52;;;10.73;;
39344;SDS011;25061;51.954;6.996;2023-09-12T11:50:06;15.73;;;11.05;;
39344;SDS011;25061;51.954;6.996;2023-09-12T11:52:35;14.90;;;10.98;;
39344;SDS011;25061;51.954;6.996;2023-09-12T11:55:04;17.20;;;12.90;;
39344;SDS011;25061;51.954;6.996;2023-09-12T11:57:30;16.00;;;11.68;;
39344;SDS011;25061;51.954;6.996;2023-09-12T11:59:57;17.02;;;12.30;;
39344;SDS011;25061;51.954;6.996;2023-09-12T12:02:22;19.85;;;14.43;;
39344;SDS011;25061;51.954;6.996;2023-09-12T12:04:49;17.80;;;12.25;;
39344;SDS011;25061;51.954;6.996;2023-09-12T12:07:15;13.10;;;10.98;;
39344;SDS011;25061;51.954;6.996;2023-09-12T12:09:41;15.30;;;10.82;;
39344;SDS011;25061;51.954;6.996;2023-09-12T12:14:40;15.15;;;10.77;;
39344;SDS011;25061;51.954;6.996;2023-09-12T12:17:09;13.95;;;10.20;;
39344;SDS011;25061;51.954;6.996;2023-09-12T12:19:35;14.75;;;10.25;;
39344;SDS011;25061;51.954;6.996;2023-09-12T12:22:02;11.63;;;8.18;;
39344;SDS011;25061;51.954;6.996;2023-09-12T12:24:40;13.65;;;7.82;;
39344;SDS011;25061;51.954;6.996;2023-09-12T12:27:09;12.32;;;8.50;;
39344;SDS011;25061;51.954;6.996;2023-09-12T12:29:36;13.15;;;10.02;;
39344;SDS011;25061;51.954;6.996;2023-09-12T12:32:04;15.35;;;8.98;;
39344;SDS011;25061;51.954;6.996;2023-09-12T12:34:30;12.85;;;9.25;;
39344;SDS011;25061;51.954;6.996;2023-09-12T12:36:56;14.57;;;9.88;;
39344;SDS011;25061;51.954;6.996;2023-09-12T12:39:22;14.52;;;9.93;;
39344;SDS011;25061;51.954;6.996;2023-09-12T12:41:51;14.93;;;10.13;;
39344;SDS011;25061;51.954;6.996;2023-09-12T12:44:20;12.55;;;9.75;;
39344;SDS011;25061;51.954;6.996;2023-09-12T12:46:49;12.25;;;9.23;;
39344;SDS011;25061;51.954;6.996;2023-09-12T12:49:17;14.63;;;9.05;;
39344;SDS011;25061;51.954;6.996;2023-09-12T12:51:43;13.00;;;9.02;;
39344;SDS011;25061;51.954;6.996;2023-09-12T12:54:10;14.63;;;9.93;;
39344;SDS011;25061;51.954;6.996;2023-09-12T12:56:35;15.93;;;9.73;;
39344;SDS011;25061;51.954;6.996;2023-09-12T12:59:03;13.68;;;10.05;;
39344;SDS011;25061;51.954;6.996;2023-09-12T13:01:38;14.20;;;9.88;;
39344;SDS011;25061;51.954;6.996;2023-09-12T13:04:04;13.45;;;9.85;;
39344;SDS011;25061;51.954;6.996;2023-09-12T13:06:32;11.65;;;8.57;;
39344;SDS011;25061;51.954;6.996;2023-09-12T13:09:01;13.60;;;8.40;;
39344;SDS011;25061;51.954;6.996;2023-09-12T13:11:30;12.45;;;8.20;;
39344;SDS011;25061;51.954;6.996;2023-09-12T13:13:57;13.52;;;8.18;;
39344;SDS011;25061;51.954;6.996;2023-09-12T13:16:22;12.48;;;8.40;;
39344;SDS011;25061;51.954;6.996;2023-09-12T13:18:48;14.23;;;9.25;;
39344;SDS011;25061;51.954;6.996;2023-09-12T13:21:14;13.23;;;9.23;;
39344;SDS011;25061;51.954;6.996;2023-09-12T13:23:39;12.65;;;8.38;;
39344;SDS011;25061;51.954;6.996;2023-09-12T13:26:06;11.68;;;8.57;;
39344;SDS011;25061;51.954;6.996;2023-09-12T13:28:33;12.13;;;8.18;;
39344;SDS011;25061;51.954;6.996;2023-09-12T13:30:58;15.45;;;9.45;;
39344;SDS011;25061;51.954;6.996;2023-09-12T13:33:24;12.50;;;9.02;;
39344;SDS011;25061;51.954;6.996;2023-09-12T13:35:50;13.95;;;9.43;;
39344;SDS011;25061;51.954;6.996;2023-09-12T13:38:16;16.00;;;10.07;;
39344;SDS011;25061;51.954;6.996;2023-09-12T13:40:44;13.27;;;9.40;;
39344;SDS011;25061;51.954;6.996;2023-09-12T13:43:10;13.95;;;9.70;;
39344;SDS011;25061;51.954;6.996;2023-09-12T13:45:36;16.02;;;10.63;;
39344;SDS011;25061;51.954;6.996;2023-09-12T13:48:02;14.93;;;10.25;;
39344;SDS011;25061;51.954;6.996;2023-09-12T13:50:28;13.07;;;10.48;;
39344;SDS011;25061;51.954;6.996;2023-09-12T13:52:55;12.82;;;8.63;;
39344;SDS011;25061;51.954;6.996;2023-09-12T13:55:25;12.52;;;8.32;;
39344;SDS011;25061;51.954;6.996;2023-09-12T13:57:51;14.50;;;9.55;;
39344;SDS011;25061;51.954;6.996;2023-09-12T14:00:17;11.63;;;7.65;;
39344;SDS011;25061;51.954;6.996;2023-09-12T14:02:42;12.55;;;7.70;;
39344;SDS011;25061;51.954;6.996;2023-09-12T14:05:09;13.45;;;8.52;;
39344;SDS011;25061;51.954;6.996;2023-09-12T14:07:36;12.27;;;8.25;;
39344;SDS011;25061;51.954;6.996;2023-09-12T14:10:03;13.27;;;8.65;;
39344;SDS011;25061;51.954;6.996;2023-09-12T14:12:29;13.38;;;8.40;;
39344;SDS011;25061;51.954;6.996;2023-09-12T14:14:54;13.30;;;8.48;;
39344;SDS011;25061;51.954;6.996;2023-09-12T14:17:20;11.98;;;7.45;;
39344;SDS011;25061;51.954;6.996;2023-09-12T14:19:45;12.10;;;6.65;;
39344;SDS011;25061;51.954;6.996;2023-09-12T14:22:11;11.77;;;6.78;;
39344;SDS011;25061;51.954;6.996;2023-09-12T14:24:37;12.75;;;7.18;;
39344;SDS011;25061;51.954;6.996;2023-09-12T14:27:02;13.25;;;7.93;;
39344;SDS011;25061;51.954;6.996;2023-09-12T14:29:29;12.00;;;7.40;;
39344;SDS011;25061;51.954;6.996;2023-09-12T14:31:55;10.38;;;6.50;;
39344;SDS011;25061;51.954;6.996;2023-09-12T14:34:24;11.70;;;6.57;;
39344;SDS011;25061;51.954;6.996;2023-09-12T14:36:54;10.90;;;7.50;;
39344;SDS011;25061;51.954;6.996;2023-09-12T14:39:21;9.35;;;5.97;;
39344;SDS011;25061;51.954;6.996;2023-09-12T14:41:47;11.70;;;7.35;;
39344;SDS011;25061;51.954;6.996;2023-09-12T14:44:17;11.00;;;6.93;;
39344;SDS011;25061;51.954;6.996;2023-09-12T14:46:43;10.05;;;7.30;;
39344;SDS011;25061;51.954;6.996;2023-09-12T14:49:09;11.23;;;7.30;;
39344;SDS011;25061;51.954;6.996;2023-09-12T14:51:35;12.07;;;8.23;;
39344;SDS011;25061;51.954;6.996;2023-09-12T14:54:02;11.68;;;7.55;;
39344;SDS011;25061;51.954;6.996;2023-09-12T14:56:27;10.43;;;6.80;;
39344;SDS011;25061;51.954;6.996;2023-09-12T14:58:53;10.52;;;6.72;;
39344;SDS011;25061;51.954;6.996;2023-09-12T15:01:19;11.32;;;6.20;;
39344;SDS011;25061;51.954;6.996;2023-09-12T15:03:44;12.25;;;7.47;;
39344;SDS011;25061;51.954;6.996;2023-09-12T15:06:10;12.30;;;6.60;;
39344;SDS011;25061;51.954;6.996;2023-09-12T15:08:36;10.23;;;6.22;;
39344;SDS011;25061;51.954;6.996;2023-09-12T15:11:02;10.30;;;6.80;;
39344;SDS011;25061;51.954;6.996;2023-09-12T15:13:28;13.43;;;7.50;;
39344;SDS011;25061;51.954;6.996;2023-09-12T15:15:54;11.80;;;6.88;;
39344;SDS011;25061;51.954;6.996;2023-09-12T15:18:19;9.43;;;6.55;;
39344;SDS011;25061;51.954;6.996;2023-09-12T15:20:45;12.25;;;6.97;;
39344;SDS011;25061;51.954;6.996;2023-09-12T15:23:11;11.80;;;6.95;;
39344;SDS011;25061;51.954;6.996;2023-09-12T15:25:36;12.10;;;6.70;;
39344;SDS011;25061;51.954;6.996;2023-09-12T15:28:02;12.65;;;7.72;;
39344;SDS011;25061;51.954;6.996;2023-09-12T15:30:28;11.70;;;7.45;;
39344;SDS011;25061;51.954;6.996;2023-09-12T15:32:54;10.55;;;6.57;;
39344;SDS011;25061;51.954;6.996;2023-09-12T15:35:19;11.98;;;7.45;;
39344;SDS011;25061;51.954;6.996;2023-09-12T15:37:45;11.40;;;7.45;;
39344;SDS011;25061;51.954;6.996;2023-09-12T15:40:11;10.65;;;7.05;;
39344;SDS011;25061;51.954;6.996;2023-09-12T15:42:36;12.07;;;7.07;;
39344;SDS011;25061;51.954;6.996;2023-09-12T15:45:02;12.15;;;6.93;;
39344;SDS011;25061;51.954;6.996;2023-09-12T15:47:29;10.10;;;6.45;;
39344;SDS011;25061;51.954;6.996;2023-09-12T15:49:55;11.55;;;6.68;;
39344;SDS011;25061;51.954;6.996;2023-09-12T15:52:21;11.82;;;6.55;;
39344;SDS011;25061;51.954;6.996;2023-09-12T15:54:46;24.90;;;9.23;;
39344;SDS011;25061;51.954;6.996;2023-09-12T15:57:14;21.88;;;7.75;;
39344;SDS011;25061;51.954;6.996;2023-09-12T15:59:39;11.95;;;7.22;;
39344;SDS011;25061;51.954;6.996;2023-09-12T16:02:05;10.98;;;6.90;;
39344;SDS011;25061;51.954;6.996;2023-09-12T16:04:31;10.13;;;6.97;;
39344;SDS011;25061;51.954;6.996;2023-09-12T16:06:56;10.45;;;7.40;;
39344;SDS011;25061;51.954;6.996;2023-09-12T16:09:22;11.23;;;6.80;;
39344;SDS011;25061;51.954;6.996;2023-09-12T16:11:48;11.70;;;6.70;;
39344;SDS011;25061;51.954;6.996;2023-09-12T16:14:14;9.90;;;6.18;;
39344;SDS011;25061;51.954;6.996;2023-09-12T16:16:40;11.70;;;6.72;;
39344;SDS011;25061;51.954;6.996;2023-09-12T16:19:06;11.52;;;6.90;;
39344;SDS011;25061;51.954;6.996;2023-09-12T16:21:34;10.75;;;6.65;;
39344;SDS011;25061;51.954;6.996;2023-09-12T16:24:00;9.48;;;5.90;;
39344;SDS011;25061;51.954;6.996;2023-09-12T16:26:25;10.38;;;6.68;;
39344;SDS011;25061;51.954;6.996;2023-09-12T16:28:51;10.25;;;6.95;;
39344;SDS011;25061;51.954;6.996;2023-09-12T16:31:17;11.52;;;7.38;;
39344;SDS011;25061;51.954;6.996;2023-09-12T16:33:42;12.85;;;7.22;;
39344;SDS011;25061;51.954;6.996;2023-09-12T16:36:08;10.38;;;6.22;;
39344;SDS011;25061;51.954;6.996;2023-09-12T16:38:34;11.57;;;6.72;;
39344;SDS011;25061;51.954;6.996;2023-09-12T16:41:00;9.68;;;6.35;;
39344;SDS011;25061;51.954;6.996;2023-09-12T16:43:25;10.80;;;6.18;;
39344;SDS011;25061;51.954;6.996;2023-09-12T16:45:51;11.10;;;6.28;;
39344;SDS011;25061;51.954;6.996;2023-09-12T16:48:16;11.25;;;6.03;;
39344;SDS011;25061;51.954;6.996;2023-09-12T16:50:44;10.15;;;5.90;;
39344;SDS011;25061;51.954;6.996;2023-09-12T16:53:10;10.15;;;5.80;;
39344;SDS011;25061;51.954;6.996;2023-09-12T16:55:36;10.07;;;6.05;;
39344;SDS011;25061;51.954;6.996;2023-09-12T16:58:01;10.40;;;5.97;;
39344;SDS011;25061;51.954;6.996;2023-09-12T17:00:27;9.70;;;5.60;;
39344;SDS011;25061;51.954;6.996;2023-09-12T17:02:54;9.98;;;5.72;;
39344;SDS011;25061;51.954;6.996;2023-09-12T17:05:21;9.18;;;5.35;;
39344;SDS011;25061;51.954;6.996;2023-09-12T17:07:48;9.52;;;5.32;;
39344;SDS011;25061;51.954;6.996;2023-09-12T17:10:14;10.75;;;5.97;;
39344;SDS011;25061;51.954;6.996;2023-09-12T17:12:40;12.07;;;5.97;;
39344;SDS011;25061;51.954;6.996;2023-09-12T17:15:06;10.82;;;5.57;;
39344;SDS011;25061;51.954;6.996;2023-09-12T17:17:32;9.93;;;5.88;;
39344;SDS011;25061;51.954;6.996;2023-09-12T17:19:57;11.13;;;5.80;;
39344;SDS011;25061;51.954;6.996;2023-09-12T17:22:23;12.63;;;6.55;;
39344;SDS011;25061;51.954;6.996;2023-09-12T17:24:49;11.48;;;5.88;;
39344;SDS011;25061;51.954;6.996;2023-09-12T17:27:15;8.73;;;5.40;;
39344;SDS011;25061;51.954;6.996;2023-09-12T17:29:40;11.43;;;5.85;;
39344;SDS011;25061;51.954;6.996;2023-09-12T17:32:10;9.90;;;5.90;;
39344;SDS011;25061;51.954;6.996;2023-09-12T17:34:39;11.63;;;5.93;;
39344;SDS011;25061;51.954;6.996;2023-09-12T17:37:06;11.35;;;5.68;;
39344;SDS011;25061;51.954;6.996;2023-09-12T17:39:31;13.30;;;6.03;;
39344;SDS011;25061;51.954;6.996;2023-09-12T17:41:57;8.77;;;6.03;;
39344;SDS011;25061;51.954;6.996;2023-09-12T17:44:23;9.80;;;5.68;;
39344;SDS011;25061;51.954;6.996;2023-09-12T17:46:48;11.18;;;5.93;;
39344;SDS011;25061;51.954;6.996;2023-09-12T17:49:14;9.73;;;5.95;;
39344;SDS011;25061;51.954;6.996;2023-09-12T17:51:40;9.98;;;6.30;;
39344;SDS011;25061;51.954;6.996;2023-09-12T17:54:05;9.65;;;6.28;;
39344;SDS011;25061;51.954;6.996;2023-09-12T17:56:31;9.43;;;5.65;;
39344;SDS011;25061;51.954;6.996;2023-09-12T17:58:56;11.15;;;6.15;;
39344;SDS011;25061;51.954;6.996;2023-09-12T18:01:22;15.23;;;6.05;;
39344;SDS011;25061;51.954;6.996;2023-09-12T18:03:48;10.18;;;6.05;;
39344;SDS011;25061;51.954;6.996;2023-09-12T18:06:13;9.13;;;5.97;;
39344;SDS011;25061;51.954;6.996;2023-09-12T18:08:39;10.05;;;6.45;;
39344;SDS011;25061;51.954;6.996;2023-09-12T18:11:04;9.52;;;6.40;;
39344;SDS011;25061;51.954;6.996;2023-09-12T18:13:30;11.20;;;6.53;;
39344;SDS011;25061;51.954;6.996;2023-09-12T18:15:56;10.40;;;6.68;;
39344;SDS011;25061;51.954;6.996;2023-09-12T18:18:22;10.98;;;6.90;;
39344;SDS011;25061;51.954;6.996;2023-09-12T18:20:47;13.82;;;7.47;;
39344;SDS011;25061;51.954;6.996;2023-09-12T18:23:13;11.05;;;7.72;;
39344;SDS011;25061;51.954;6.996;2023-09-12T18:25:39;12.32;;;6.32;;
39344;SDS011;25061;51.954;6.996;2023-09-12T18:28:05;14.30;;;7.35;;
39344;SDS011;25061;51.954;6.996;2023-09-12T18:30:30;13.57;;;7.55;;
39344;SDS011;25061;51.954;6.996;2023-09-12T18:32:56;11.68;;;7.57;;
39344;SDS011;25061;51.954;6.996;2023-09-12T18:35:22;17.17;;;7.82;;
39344;SDS011;25061;51.954;6.996;2023-09-12T18:37:48;10.07;;;7.20;;
39344;SDS011;25061;51.954;6.996;2023-09-12T18:40:14;14.00;;;7.80;;
39344;SDS011;25061;51.954;6.996;2023-09-12T18:42:41;13.00;;;7.50;;
39344;SDS011;25061;51.954;6.996;2023-09-12T18:45:06;13.32;;;7.75;;
39344;SDS011;25061;51.954;6.996;2023-09-12T18:47:32;13.65;;;7.28;;
39344;SDS011;25061;51.954;6.996;2023-09-12T18:49:59;14.30;;;8.27;;
39344;SDS011;25061;51.954;6.996;2023-09-12T18:52:26;11.75;;;7.45;;
39344;SDS011;25061;51.954;6.996;2023-09-12T18:54:52;13.00;;;8.05;;
39344;SDS011;25061;51.954;6.996;2023-09-12T18:57:18;13.52;;;8.50;;
39344;SDS011;25061;51.954;6.996;2023-09-12T18:59:43;13.70;;;7.63;;
39344;SDS011;25061;51.954;6.996;2023-09-12T19:02:11;12.75;;;8.27;;
39344;SDS011;25061;51.954;6.996;2023-09-12T19:04:37;16.20;;;9.90;;
39344;SDS011;25061;51.954;6.996;2023-09-12T19:07:03;15.68;;;9.30;;
39344;SDS011;25061;51.954;6.996;2023-09-12T19:09:29;11.00;;;7.80;;
39344;SDS011;25061;51.954;6.996;2023-09-12T19:11:55;12.63;;;8.25;;
39344;SDS011;25061;51.954;6.996;2023-09-12T19:14:21;13.30;;;8.43;;
39344;SDS011;25061;51.954;6.996;2023-09-12T19:16:50;15.02;;;8.57;;
39344;SDS011;25061;51.954;6.996;2023-09-12T19:19:18;16.52;;;8.00;;
39344;SDS011;25061;51.954;6.996;2023-09-12T19:21:43;12.75;;;7.68;;